Time;durP1;ratioP1;P1;durP2;ratioP2;P2;SDS_P1;SDS_P2;PMS_P1;PMS_P2;Temp;Humidity;BMP_temperature;BMP_pressure;BME280_temperature;BME280_humidity;BME280_pressure;Samples;Min_cycle;Max_cycle;Signal;HPM_P1;HPM_P2
2022/03/29 00:02:23;;;;;;;15.27;10.10;;;;;;;10.45;45.43;96175.09;5001149;28;20212;-83
2022/03/29 00:04:50;;;;;;;15.37;10.10;;;;;;;10.46;45.58;96166.72;5003396;28;20210;-82
2022/03/29 00:07:17;;;;;;;16.60;10.47;;;;;;;10.50;45.61;96162.53;5005088;28;20199;-82
2022/03/29 00:09:44;;;;;;;14.60;9.73;;;;;;;10.51;45.36;96157.94;5002283;28;20208;-83
2022/03/29 00:12:11;;;;;;;14.40;9.50;;;;;;;10.51;46.33;96157.94;5011509;28;20304;-82
2022/03/29 00:14:38;;;;;;;16.30;10.50;;;;;;;10.46;45.45;96150.53;4993508;28;20259;-82
2022/03/29 00:17:07;;;;;;;16.47;9.60;;;;;;;10.55;45.36;96154.53;5003536;28;20234;-82
2022/03/29 00:19:34;;;;;;;16.00;9.63;;;;;;;10.60;43.88;96140.34;5016294;28;20274;-83
2022/03/29 00:22:01;;;;;;;15.33;9.57;;;;;;;10.65;43.65;96137.75;4999339;28;20290;-82
2022/03/29 00:24:29;;;;;;;14.53;9.60;;;;;;;10.68;42.78;96131.88;5002883;28;20219;-83
2022/03/29 00:26:56;;;;;;;19.13;9.83;;;;;;;10.73;43.16;96129.28;5005847;28;20436;-83
2022/03/29 00:29:23;;;;;;;14.63;9.90;;;;;;;10.69;42.09;96120.03;5015945;28;20207;-83
2022/03/29 00:31:50;;;;;;;14.47;9.70;;;;;;;10.71;43.02;96112.53;5012734;28;20242;-82
2022/03/29 00:34:19;;;;;;;15.40;10.47;;;;;;;10.71;42.64;96117.94;4992690;28;20220;-83
2022/03/29 00:36:46;;;;;;;15.13;10.00;;;;;;;10.71;42.94;96114.41;4998417;28;20212;-83
2022/03/29 00:39:13;;;;;;;14.80;10.10;;;;;;;10.70;42.08;96123.56;5012225;28;20204;-83
2022/03/29 00:41:40;;;;;;;16.07;9.87;;;;;;;10.63;42.01;96106.66;5001007;28;20216;-83
2022/03/29 00:44:07;;;;;;;19.00;9.87;;;;;;;10.69;42.13;96108.41;4999749;28;20281;-83
2022/03/29 00:46:34;;;;;;;15.70;10.30;;;;;;;10.74;41.41;96103.94;5014567;28;20208;-83
2022/03/29 00:49:01;;;;;;;16.27;10.07;;;;;;;10.79;40.84;96095.94;5001942;28;20211;-83
2022/03/29 00:51:30;;;;;;;15.60;10.33;;;;;;;10.85;40.65;96099.56;5009980;28;20204;-83
2022/03/29 00:53:57;;;;;;;16.43;10.63;;;;;;;10.95;39.96;96097.91;4999639;28;20212;-83
2022/03/29 00:56:24;;;;;;;15.37;10.90;;;;;;;10.98;40.25;96104.69;4995740;28;20216;-83
2022/03/29 00:58:52;;;;;;;14.70;10.07;;;;;;;10.95;39.53;96089.00;5007285;28;20208;-82
2022/03/29 01:01:19;;;;;;;15.40;9.90;;;;;;;11.07;40.08;96103.28;5000374;28;20228;-83
2022/03/29 01:03:47;;;;;;;23.47;12.47;;;;;;;11.02;41.88;96100.47;5011764;28;20203;-82
2022/03/29 01:06:14;;;;;;;20.00;12.47;;;;;;;10.90;43.39;96102.38;4998340;28;20218;-82
2022/03/29 01:08:44;;;;;;;21.97;13.17;;;;;;;10.65;44.04;96085.63;5000878;28;20196;-83
2022/03/29 01:11:12;;;;;;;22.20;13.67;;;;;;;10.51;44.84;96096.69;5004098;28;20211;-83
2022/03/29 01:13:41;;;;;;;21.33;13.10;;;;;;;10.49;45.38;96096.09;5007989;28;20215;-83
2022/03/29 01:18:51;;;;;;;21.03;12.77;;;;;;;10.27;46.17;96092.34;4969168;28;20212;-82
2022/03/29 01:21:21;;;;;;;18.87;12.20;;;;;;;10.26;46.74;96084.47;5004009;28;20313;-82
2022/03/29 01:23:50;;;;;;;16.53;11.53;;;;;;;10.27;44.43;96076.16;5009239;28;20605;-82
2022/03/29 01:26:17;;;;;;;15.60;11.87;;;;;;;10.25;44.59;96072.88;5002487;28;20227;-82
2022/03/29 01:28:45;;;;;;;17.97;11.43;;;;;;;10.25;44.04;96075.56;5006490;28;20278;-83
2022/03/29 01:31:13;;;;;;;18.57;11.33;;;;;;;10.35;43.43;96065.00;5014566;28;20235;-82
2022/03/29 01:33:43;;;;;;;15.47;11.27;;;;;;;10.45;41.65;96067.94;4994790;28;20210;-83
2022/03/29 01:36:10;;;;;;;18.07;11.83;;;;;;;10.58;40.30;96066.84;5000090;28;20203;-83
2022/03/29 01:38:38;;;;;;;18.80;12.07;;;;;;;10.75;40.22;96056.13;4999915;28;20699;-82
2022/03/29 01:41:07;;;;;;;16.87;11.07;;;;;;;10.82;40.62;96052.25;5003398;28;20227;-82
2022/03/29 01:43:34;;;;;;;18.33;11.37;;;;;;;10.89;39.37;96049.41;4991021;28;20203;-83
2022/03/29 01:46:02;;;;;;;17.33;11.43;;;;;;;10.91;40.22;96045.41;4999682;28;20208;-82
2022/03/29 01:48:29;;;;;;;16.80;11.47;;;;;;;10.90;40.33;96046.47;4995666;28;20221;-83
2022/03/29 01:50:56;;;;;;;18.30;12.50;;;;;;;10.89;41.79;96047.53;4996836;28;20243;-82
2022/03/29 01:53:24;;;;;;;18.87;11.43;;;;;;;10.76;42.91;96041.59;4998817;28;20199;-83
2022/03/29 01:55:55;;;;;;;20.43;13.17;;;;;;;10.57;44.43;96044.44;5004494;28;20215;-83
2022/03/29 01:58:24;;;;;;;18.30;12.27;;;;;;;10.31;45.67;96039.53;5002121;28;20208;-82
2022/03/29 02:00:51;;;;;;;24.50;13.77;;;;;;;10.12;46.42;96028.00;5015324;28;20227;-83
2022/03/29 02:03:18;;;;;;;18.60;12.60;;;;;;;10.05;46.75;96029.19;4997725;28;20207;-83
2022/03/29 02:05:45;;;;;;;21.00;13.50;;;;;;;9.87;47.51;96033.63;5001045;28;20298;-82
2022/03/29 02:08:13;;;;;;;21.10;13.00;;;;;;;9.66;48.24;96025.31;5019450;28;20211;-83
2022/03/29 02:10:40;;;;;;;18.90;12.37;;;;;;;9.50;48.77;96024.09;5002521;28;20204;-82
2022/03/29 02:13:09;;;;;;;17.20;11.70;;;;;;;9.71;46.57;96018.16;5000421;28;20300;-82
2022/03/29 02:15:38;;;;;;;18.37;11.63;;;;;;;9.65;48.10;95997.53;5000714;28;20223;-82
2022/03/29 02:18:05;;;;;;;20.83;11.80;;;;;;;9.64;47.66;96009.34;5017516;28;20203;-82
2022/03/29 02:20:33;;;;;;;16.93;11.30;;;;;;;9.67;46.04;96000.00;4992616;28;20223;-83
2022/03/29 02:23:04;;;;;;;16.93;11.67;;;;;;;10.04;42.30;95993.31;5021497;28;20282;-82
2022/03/29 02:25:31;;;;;;;20.00;12.00;;;;;;;10.22;40.79;95981.59;5000600;28;20207;-82
2022/03/29 02:27:58;;;;;;;18.83;12.50;;;;;;;10.51;39.79;95971.69;4997917;28;20211;-82
2022/03/29 02:30:26;;;;;;;26.63;12.30;;;;;;;10.72;39.55;95978.31;5003989;28;20265;-82
2022/03/29 02:32:54;;;;;;;19.23;12.20;;;;;;;10.88;39.67;95972.97;4997722;28;20227;-82
2022/03/29 02:35:21;;;;;;;17.60;12.03;;;;;;;11.01;38.58;95963.75;4998672;28;20208;-82
2022/03/29 02:37:48;;;;;;;18.17;11.87;;;;;;;11.04;38.54;95965.97;4996416;28;20371;-82
2022/03/29 02:40:16;;;;;;;19.37;12.27;;;;;;;11.08;38.38;95964.41;4999859;28;20211;-82
2022/03/29 02:42:44;;;;;;;17.70;12.27;;;;;;;11.20;37.63;95948.97;5019553;28;20231;-84
2022/03/29 02:45:16;;;;;;;17.07;12.27;;;;;;;11.28;40.13;95959.38;5012802;28;20203;-84
2022/03/29 02:47:44;;;;;;;18.23;13.23;;;;;;;10.94;42.19;95952.28;5001337;28;20207;-84
2022/03/29 02:50:14;;;;;;;21.00;13.07;;;;;;;10.53;43.58;95946.09;4990960;28;20204;-84
2022/03/29 02:52:45;;;;;;;19.23;12.87;;;;;;;10.29;44.55;95955.31;4999386;28;20207;-85
2022/03/29 02:55:13;;;;;;;19.23;13.20;;;;;;;10.11;45.17;95955.44;4999099;28;20204;-84
2022/03/29 02:57:40;;;;;;;20.40;12.70;;;;;;;10.10;44.16;95949.22;5000159;28;20291;-84
2022/03/29 03:00:09;;;;;;;24.00;13.10;;;;;;;10.08;45.52;95953.19;4993971;28;20195;-82
2022/03/29 03:02:36;;;;;;;23.60;12.93;;;;;;;9.98;45.57;95948.41;5015504;28;20227;-82
2022/03/29 03:05:04;;;;;;;19.03;12.47;;;;;;;10.05;43.03;95948.25;4994514;28;20208;-82
2022/03/29 03:07:33;;;;;;;17.93;12.13;;;;;;;10.16;43.11;95950.97;5016370;28;20287;-82
2022/03/29 03:10:00;;;;;;;17.47;11.87;;;;;;;10.22;43.09;95944.63;4996528;28;20211;-82
2022/03/29 03:12:27;;;;;;;17.57;11.40;;;;;;;10.20;44.31;95946.78;5001017;28;20226;-82
2022/03/29 03:14:54;;;;;;;18.50;12.17;;;;;;;10.11;43.73;95939.25;5000255;28;20216;-83
2022/03/29 03:17:21;;;;;;;19.90;12.63;;;;;;;10.12;43.68;95939.00;5000924;28;20295;-82
2022/03/29 03:19:48;;;;;;;18.80;13.10;;;;;;;10.23;40.81;95945.47;4993325;28;20218;-82
2022/03/29 03:22:15;;;;;;;17.80;12.90;;;;;;;10.48;39.99;95932.47;4989576;28;20220;-82
2022/03/29 03:24:44;;;;;;;21.27;13.03;;;;;;;10.72;38.73;95925.13;4999480;28;20218;-82
2022/03/29 03:27:11;;;;;;;20.53;12.70;;;;;;;10.84;38.46;95922.38;5000167;28;20238;-82
2022/03/29 03:29:38;;;;;;;19.87;12.67;;;;;;;10.93;38.24;95931.72;4997835;28;20212;-83
2022/03/29 03:32:06;;;;;;;23.10;13.57;;;;;;;10.95;37.96;95924.22;4998232;28;20259;-82
2022/03/29 03:34:33;;;;;;;22.03;11.90;;;;;;;11.06;37.42;95917.13;4999966;28;20199;-82
2022/03/29 03:37:02;;;;;;;19.67;13.03;;;;;;;11.17;36.42;95919.72;5007067;28;20195;-82
2022/03/29 03:39:30;;;;;;;18.93;12.70;;;;;;;11.26;36.86;95920.16;5001824;28;20374;-82
2022/03/29 03:41:58;;;;;;;18.33;11.93;;;;;;;11.21;37.25;95912.78;5005262;28;20242;-82
2022/03/29 03:44:26;;;;;;;18.53;12.10;;;;;;;11.24;37.05;95922.25;4995857;28;20267;-83
2022/03/29 03:46:53;;;;;;;17.30;12.63;;;;;;;11.23;37.13;95918.75;4996573;28;20270;-82
2022/03/29 03:49:20;;;;;;;17.37;12.03;;;;;;;11.25;36.64;95919.31;4992574;28;20216;-82
2022/03/29 03:51:47;;;;;;;20.00;12.17;;;;;;;11.34;35.95;95904.34;4998882;28;20297;-82
2022/03/29 03:54:14;;;;;;;19.13;12.77;;;;;;;11.48;36.13;95915.66;5000218;28;20224;-82
2022/03/29 03:56:41;;;;;;;17.90;12.63;;;;;;;11.47;36.37;95915.91;4994304;28;20250;-82
2022/03/29 03:59:10;;;;;;;23.40;15.43;;;;;;;11.39;36.20;95906.31;5003534;28;20273;-82
2022/03/29 04:01:37;;;;;;;18.67;12.33;;;;;;;11.41;35.91;95898.75;5009362;28;20297;-83
2022/03/29 04:04:04;;;;;;;23.27;12.83;;;;;;;11.46;35.85;95893.44;5002699;28;20203;-84
2022/03/29 04:06:32;;;;;;;17.70;13.00;;;;;;;11.47;36.73;95902.38;5005519;28;20609;-84
2022/03/29 04:08:59;;;;;;;18.40;12.70;;;;;;;11.27;39.63;95911.78;5006379;28;20215;-84
2022/03/29 04:11:26;;;;;;;20.87;14.53;;;;;;;10.95;40.76;95899.91;5000972;28;20211;-84
2022/03/29 04:13:54;;;;;;;19.20;13.87;;;;;;;10.73;41.39;95904.34;4997160;28;20208;-84
2022/03/29 04:16:22;;;;;;;21.43;13.60;;;;;;;10.48;43.13;95904.66;5001809;28;20219;-82
2022/03/29 04:18:49;;;;;;;19.73;13.47;;;;;;;10.18;43.57;95911.13;5003112;28;20239;-82
2022/03/29 04:21:16;;;;;;;22.07;13.97;;;;;;;9.85;45.38;95905.50;5002655;28;20211;-83
2022/03/29 04:23:43;;;;;;;18.70;13.23;;;;;;;9.56;46.13;95918.06;5008472;28;20298;-82
2022/03/29 04:26:11;;;;;;;23.33;14.10;;;;;;;9.49;46.41;95901.19;5007374;28;20200;-82
2022/03/29 04:28:38;;;;;;;22.53;14.20;;;;;;;9.50;46.47;95905.53;5012009;28;20204;-82
2022/03/29 04:31:05;;;;;;;21.63;13.37;;;;;;;9.56;44.91;95893.78;5004589;28;20203;-83
2022/03/29 04:33:34;;;;;;;20.47;13.00;;;;;;;9.71;43.44;95893.31;5019216;28;20233;-83
2022/03/29 04:36:02;;;;;;;19.10;12.57;;;;;;;9.88;42.64;95897.75;4996950;28;20208;-83
2022/03/29 04:38:29;;;;;;;19.30;13.37;;;;;;;9.94;45.22;95892.50;5008790;28;20210;-83
2022/03/29 04:40:56;;;;;;;22.17;12.57;;;;;;;9.82;45.79;95901.41;5004536;28;20212;-83
2022/03/29 04:43:23;;;;;;;21.87;13.40;;;;;;;9.74;45.88;95899.06;5000916;28;20223;-84
2022/03/29 04:45:50;;;;;;;22.00;14.27;;;;;;;9.66;46.21;95896.72;5013941;28;20212;-84
2022/03/29 04:48:17;;;;;;;23.03;13.70;;;;;;;9.58;46.69;95894.38;5002804;28;20267;-83
2022/03/29 04:50:45;;;;;;;23.43;13.93;;;;;;;9.44;47.03;95882.22;5004211;28;20271;-84
2022/03/29 04:53:13;;;;;;;19.80;13.73;;;;;;;9.44;47.23;95898.38;5003011;28;20204;-83
2022/03/29 04:55:40;;;;;;;19.47;13.20;;;;;;;9.40;47.46;95889.94;5002774;28;20294;-83
2022/03/29 04:58:07;;;;;;;19.60;13.63;;;;;;;9.36;47.65;95885.22;5002612;28;20227;-84
2022/03/29 05:00:34;;;;;;;20.37;13.50;;;;;;;9.42;48.00;95892.41;5000014;28;20208;-83
2022/03/29 05:03:01;;;;;;;24.23;13.77;;;;;;;9.40;49.27;95897.19;4998672;28;20235;-84
2022/03/29 05:05:29;;;;;;;22.57;13.87;;;;;;;9.24;49.04;95887.94;5013623;28;20234;-83
2022/03/29 05:07:57;;;;;;;21.20;13.47;;;;;;;9.22;49.51;95897.28;5008354;28;20236;-83
2022/03/29 05:10:25;;;;;;;24.60;14.43;;;;;;;9.23;49.51;95907.03;5000662;28;20222;-83
2022/03/29 05:12:52;;;;;;;23.47;14.83;;;;;;;9.15;48.99;95894.72;5002648;28;20218;-83
2022/03/29 05:15:22;;;;;;;25.50;14.50;;;;;;;9.13;49.44;95901.38;5000831;28;20246;-83
2022/03/29 05:17:49;;;;;;;24.70;15.70;;;;;;;9.10;49.83;95902.69;5004284;28;20196;-83
2022/03/29 05:20:17;;;;;;;22.07;15.23;;;;;;;8.95;50.07;95900.41;5002335;28;20227;-83
2022/03/29 05:22:46;;;;;;;23.83;16.00;;;;;;;8.95;50.57;95905.78;5001386;28;20346;-84
2022/03/29 05:25:15;;;;;;;29.27;15.53;;;;;;;8.92;50.26;95908.16;5001324;28;20203;-83
2022/03/29 05:27:42;;;;;;;20.70;14.23;;;;;;;8.99;51.11;95909.69;5004110;28;20207;-84
2022/03/29 05:30:11;;;;;;;25.97;13.97;;;;;;;9.10;50.56;95908.06;5000597;28;20211;-83
2022/03/29 05:32:38;;;;;;;24.63;14.20;;;;;;;9.15;51.39;95910.06;4996866;28;20236;-84
2022/03/29 05:35:07;;;;;;;23.37;14.57;;;;;;;9.19;51.38;95906.66;5000533;28;20199;-84
2022/03/29 05:37:35;;;;;;;24.20;14.83;;;;;;;9.18;51.66;95905.03;5000777;28;20204;-83
2022/03/29 05:40:02;;;;;;;21.37;14.37;;;;;;;9.23;51.10;95899.75;5004529;28;20206;-83
2022/03/29 05:42:31;;;;;;;22.47;14.43;;;;;;;9.28;51.28;95893.66;4998451;28;20227;-83
2022/03/29 05:44:58;;;;;;;21.33;14.63;;;;;;;9.37;50.93;95892.25;4998282;28;20222;-83
2022/03/29 05:50:10;;;;;;;20.20;14.47;;;;;;;9.44;51.26;95898.38;4998221;28;20203;-82
2022/03/29 05:52:37;;;;;;;25.47;15.67;;;;;;;9.42;51.46;95900.47;4994219;28;20229;-82
2022/03/29 05:55:05;;;;;;;26.17;15.37;;;;;;;9.33;51.44;95891.94;5006243;28;20199;-83
2022/03/29 05:57:34;;;;;;;22.37;14.90;;;;;;;9.39;51.80;95901.75;5005248;28;20204;-82
2022/03/29 06:00:01;;;;;;;23.30;14.40;;;;;;;9.40;51.74;95897.19;4995333;28;20299;-82
2022/03/29 06:02:28;;;;;;;26.40;14.27;;;;;;;9.47;51.77;95892.50;4997066;28;20230;-83
2022/03/29 06:04:55;;;;;;;28.80;15.33;;;;;;;9.57;51.63;95898.13;5004993;28;20262;-83
2022/03/29 06:07:22;;;;;;;25.37;16.13;;;;;;;9.52;51.94;95892.66;4999679;28;20242;-83
2022/03/29 06:09:49;;;;;;;21.90;14.37;;;;;;;9.61;51.79;95896.59;5012422;28;20212;-83
2022/03/29 06:12:21;;;;;;;23.07;14.27;;;;;;;9.46;49.92;95890.88;5014511;28;20196;-83
2022/03/29 06:14:50;;;;;;;21.70;13.50;;;;;;;9.39;50.84;95874.00;5009746;28;20207;-83
2022/03/29 06:17:18;;;;;;;20.37;12.83;;;;;;;9.57;50.03;95884.66;5005702;28;20199;-83
2022/03/29 06:19:46;;;;;;;21.53;13.17;;;;;;;9.65;50.57;95887.00;5010523;28;20211;-83
2022/03/29 06:22:14;;;;;;;23.07;13.20;;;;;;;9.63;50.80;95881.00;5002019;28;20310;-83
2022/03/29 06:24:41;;;;;;;23.43;14.47;;;;;;;9.66;50.42;95883.25;5001628;28;20207;-83
2022/03/29 06:27:08;;;;;;;22.30;14.17;;;;;;;9.71;51.67;95890.63;5000961;28;20208;-82
2022/03/29 06:29:35;;;;;;;26.23;13.97;;;;;;;9.69;53.32;95887.34;5004755;28;20223;-83
2022/03/29 06:32:05;;;;;;;25.40;14.53;;;;;;;9.68;53.05;95883.84;4992898;28;20204;-83
2022/03/29 06:34:32;;;;;;;22.90;14.40;;;;;;;9.70;51.49;95895.19;4993173;28;20290;-82
2022/03/29 06:37:00;;;;;;;23.80;14.73;;;;;;;9.65;51.03;95889.69;5001328;28;20452;-83
2022/03/29 06:39:29;;;;;;;23.67;15.07;;;;;;;9.66;50.78;95880.56;5002294;28;20204;-83
2022/03/29 06:41:56;;;;;;;24.33;14.33;;;;;;;9.83;50.94;95886.88;5008067;28;20211;-83
2022/03/29 06:44:23;;;;;;;22.90;14.60;;;;;;;9.96;50.23;95887.66;5008385;28;20235;-83
2022/03/29 06:46:50;;;;;;;27.80;15.33;;;;;;;9.96;50.72;95891.16;4999524;28;20225;-83
2022/03/29 06:49:19;;;;;;;24.87;15.10;;;;;;;9.97;51.40;95886.59;4997118;28;20208;-83
2022/03/29 06:51:47;;;;;;;25.27;16.13;;;;;;;9.92;51.39;95878.41;5003568;28;20210;-83
2022/03/29 06:54:15;;;;;;;26.87;16.90;;;;;;;9.92;51.28;95883.81;5002640;28;20211;-83
2022/03/29 06:56:42;;;;;;;27.97;15.73;;;;;;;10.01;51.45;95877.00;5004202;28;20202;-83
2022/03/29 06:59:10;;;;;;;25.90;14.87;;;;;;;10.00;52.16;95875.34;4997451;28;20196;-83
2022/03/29 07:01:38;;;;;;;19.97;13.13;;;;;;;9.99;52.51;95860.22;5004374;28;20283;-83
2022/03/29 07:04:07;;;;;;;20.20;13.27;;;;;;;10.14;52.03;95863.22;4994488;28;20215;-83
2022/03/29 07:06:36;;;;;;;22.40;13.87;;;;;;;10.22;52.93;95863.69;4998765;28;20290;-83
2022/03/29 07:11:48;;;;;;;23.73;15.37;;;;;;;10.30;52.97;95861.66;5003410;28;20226;-83
2022/03/29 07:14:15;;;;;;;23.87;15.10;;;;;;;10.30;53.17;95857.09;4997666;28;20218;-84
2022/03/29 07:16:44;;;;;;;22.40;15.00;;;;;;;10.34;53.14;95855.56;5015197;28;20251;-83
2022/03/29 07:19:11;;;;;;;24.23;15.07;;;;;;;10.45;53.37;95857.41;4999803;28;20212;-79
2022/03/29 07:21:42;;;;;;;26.60;14.43;;;;;;;10.49;51.07;95852.31;4993614;28;20211;-83
2022/03/29 07:24:10;;;;;;;22.70;14.20;;;;;;;10.49;52.27;95841.53;5009948;28;20329;-83
2022/03/29 07:26:39;;;;;;;19.43;13.67;;;;;;;10.55;51.43;95843.25;4998001;28;20203;-83
2022/03/29 07:29:07;;;;;;;20.93;13.57;;;;;;;10.70;51.84;95840.03;4997701;28;20208;-83
2022/03/29 07:31:34;;;;;;;19.80;13.53;;;;;;;10.79;51.02;95831.28;5010135;28;20294;-83
2022/03/29 07:34:02;;;;;;;18.40;13.17;;;;;;;10.92;49.82;95835.53;4997908;28;20207;-84
2022/03/29 07:36:28;;;;;;;22.50;12.80;;;;;;;11.02;50.76;95830.31;4993678;28;20298;-83
2022/03/29 07:38:57;;;;;;;25.60;14.27;;;;;;;11.13;50.85;95839.41;5010127;28;20211;-83
2022/03/29 07:41:24;;;;;;;20.43;14.03;;;;;;;11.09;50.29;95830.97;4996928;28;20216;-83
2022/03/29 07:43:51;;;;;;;27.43;15.77;;;;;;;11.12;50.94;95835.88;5007181;28;20231;-83
2022/03/29 07:46:18;;;;;;;29.97;15.50;;;;;;;11.18;51.94;95840.31;5005120;28;20219;-83
2022/03/29 07:48:45;;;;;;;22.83;15.03;;;;;;;11.20;52.16;95843.59;4996811;28;20219;-83
2022/03/29 07:51:12;;;;;;;22.73;14.60;;;;;;;11.14;52.02;95836.47;5000125;28;20306;-83
2022/03/29 07:53:40;;;;;;;24.90;15.90;;;;;;;11.21;52.22;95847.09;4993798;28;20207;-83
2022/03/29 07:56:08;;;;;;;21.00;14.47;;;;;;;11.21;51.51;95833.59;5001310;28;20272;-83
2022/03/29 07:58:35;;;;;;;26.83;15.17;;;;;;;11.29;51.02;95834.00;5007624;28;20206;-84
2022/03/29 08:01:03;;;;;;;22.87;15.07;;;;;;;11.28;51.81;95816.13;5019966;28;20219;-84
2022/03/29 08:03:32;;;;;;;25.87;15.17;;;;;;;11.27;48.97;95819.09;4997291;28;20236;-83
2022/03/29 08:06:01;;;;;;;22.83;14.50;;;;;;;11.35;49.18;95827.59;5013116;28;20259;-84
2022/03/29 08:08:30;;;;;;;25.90;14.77;;;;;;;11.47;47.72;95821.28;4997130;28;20212;-83
2022/03/29 08:10:57;;;;;;;22.13;13.43;;;;;;;11.53;44.76;95825.69;4999080;28;20212;-83
2022/03/29 08:13:27;;;;;;;27.63;14.40;;;;;;;11.61;44.26;95809.03;5019494;28;20310;-83
2022/03/29 08:15:56;;;;;;;21.87;13.07;;;;;;;11.82;43.55;95821.81;5013989;28;20223;-83
2022/03/29 08:18:24;;;;;;;19.73;13.37;;;;;;;11.95;46.64;95818.72;5001636;28;20258;-83
2022/03/29 08:20:51;;;;;;;22.93;13.70;;;;;;;12.24;46.06;95821.22;5001044;28;20207;-83
2022/03/29 08:23:18;;;;;;;21.50;12.93;;;;;;;12.61;43.11;95819.44;5002305;28;20232;-83
2022/03/29 08:25:45;;;;;;;21.80;13.40;;;;;;;12.95;42.05;95813.78;5004640;28;20215;-84
2022/03/29 08:28:13;;;;;;;26.67;14.67;;;;;;;13.22;40.49;95809.19;5012396;28;20290;-83
2022/03/29 08:30:42;;;;;;;29.23;14.77;;;;;;;13.43;41.46;95804.72;5002205;28;20302;-83
2022/03/29 08:33:10;;;;;;;25.93;15.43;;;;;;;13.62;41.44;95806.72;5007214;28;20215;-83
2022/03/29 08:35:38;;;;;;;28.63;14.70;;;;;;;13.85;40.35;95805.53;5006753;28;20211;-84
2022/03/29 08:38:06;;;;;;;24.10;14.53;;;;;;;14.01;41.30;95800.97;5004222;28;20273;-83
2022/03/29 08:40:33;;;;;;;26.30;14.67;;;;;;;14.11;41.21;95798.31;5017162;28;20310;-83
2022/03/29 08:43:01;;;;;;;24.90;15.30;;;;;;;14.11;41.34;95797.50;4998414;28;20316;-83
2022/03/29 08:45:30;;;;;;;24.13;14.77;;;;;;;14.19;41.18;95795.06;4997358;28;20243;-84
2022/03/29 08:48:00;;;;;;;24.53;15.00;;;;;;;14.26;40.18;95790.22;5020817;28;20207;-84
2022/03/29 08:50:35;;;;;;;22.60;13.90;;;;;;;14.41;40.08;95791.34;5016484;28;20294;-84
2022/03/29 08:53:03;;;;;;;23.20;14.40;;;;;;;14.61;39.82;95792.22;5002915;28;20290;-84
2022/03/29 08:55:30;;;;;;;27.83;15.33;;;;;;;14.78;39.03;95778.41;5002334;28;20204;-83
2022/03/29 08:57:58;;;;;;;28.70;15.50;;;;;;;14.99;38.70;95782.75;5017411;28;20249;-83
2022/03/29 09:00:26;;;;;;;27.67;14.90;;;;;;;15.11;37.88;95779.75;4996811;28;20200;-83
2022/03/29 09:02:53;;;;;;;29.30;15.53;;;;;;;15.15;38.72;95775.41;5004021;28;20239;-83
2022/03/29 09:05:26;;;;;;;24.43;14.97;;;;;;;15.17;38.61;95773.22;4995269;28;20271;-83
2022/03/29 09:07:55;;;;;;;23.30;14.57;;;;;;;15.20;38.07;95780.03;5018742;28;20214;-83
2022/03/29 09:10:24;;;;;;;20.93;14.77;;;;;;;15.06;37.94;95772.41;5002918;28;20212;-83
2022/03/29 09:12:51;;;;;;;21.90;14.83;;;;;;;15.08;39.49;95772.97;5000731;28;20215;-83
2022/03/29 09:15:18;;;;;;;24.83;14.33;;;;;;;15.17;40.06;95766.97;5005157;28;20233;-84
2022/03/29 09:17:47;;;;;;;24.97;14.57;;;;;;;15.29;39.49;95756.63;5004599;28;20199;-84
2022/03/29 09:20:15;;;;;;;26.17;14.93;;;;;;;15.48;39.16;95763.94;5007132;28;20214;-83
2022/03/29 09:22:48;;;;;;;24.33;14.40;;;;;;;15.63;37.56;95754.97;5005380;28;20231;-83
2022/03/29 09:25:18;;;;;;;27.93;15.73;;;;;;;15.88;34.00;95752.16;5015273;28;20217;-84
2022/03/29 09:28:00;;;;;;;22.63;14.00;;;;;;;15.83;32.51;95732.28;5013948;28;20219;-83
2022/03/29 09:30:32;;;;;;;22.00;14.30;;;;;;;15.97;34.57;95729.81;5001938;28;20199;-83
2022/03/29 09:33:02;;;;;;;19.57;13.47;;;;;;;16.15;34.68;95731.91;5020268;28;20215;-84
2022/03/29 09:35:31;;;;;;;20.83;13.83;;;;;;;16.39;32.52;95730.13;5001021;28;20222;-83
2022/03/29 09:38:01;;;;;;;21.70;13.73;;;;;;;16.64;32.07;95726.44;5018045;28;20203;-84
2022/03/29 09:40:38;;;;;;;19.47;13.63;;;;;;;16.74;30.45;95709.22;5003920;28;20215;-84
2022/03/29 09:43:25;;;;;;;27.07;14.17;;;;;;;16.90;30.48;95702.53;4998777;28;20242;-83
2022/03/29 09:45:55;;;;;;;20.93;13.33;;;;;;;17.13;29.95;95701.78;5004639;28;20211;-83
2022/03/29 09:48:34;;;;;;;21.17;13.77;;;;;;;17.43;29.24;95700.66;5013694;28;20203;-83
2022/03/29 09:51:19;;;;;;;18.73;13.13;;;;;;;17.66;29.37;95690.88;4999646;28;20200;-82
2022/03/29 09:53:51;;;;;;;24.53;15.20;;;;;;;17.88;29.43;95672.03;5003334;28;20294;-82
2022/03/29 09:56:24;;;;;;;19.40;13.80;;;;;;;17.89;28.89;95667.38;5008588;28;20212;-82
2022/03/29 09:59:07;;;;;;;23.97;15.87;;;;;;;17.98;27.31;95654.69;5014836;28;20218;-82
2022/03/29 10:01:47;;;;;;;21.57;15.37;;;;;;;17.96;28.18;95652.25;4996352;28;20240;-82
2022/03/29 10:04:16;;;;;;;23.80;15.70;;;;;;;17.92;28.49;95650.44;5015381;28;20227;-82
2022/03/29 10:06:44;;;;;;;21.37;15.23;;;;;;;17.88;29.00;95646.63;4996943;28;20220;-82
2022/03/29 10:09:26;;;;;;;21.80;15.53;;;;;;;17.74;28.36;95635.63;5002873;28;20242;-82
2022/03/29 10:11:57;;;;;;;20.87;14.83;;;;;;;17.57;29.15;95629.81;5012383;28;20226;-83
2022/03/29 10:14:25;;;;;;;22.60;15.13;;;;;;;17.52;29.80;95627.97;5000120;28;20216;-82
2022/03/29 10:16:54;;;;;;;20.00;15.23;;;;;;;17.58;28.89;95625.97;5011691;28;20218;-83
2022/03/29 10:19:22;;;;;;;22.23;15.70;;;;;;;17.67;30.26;95638.72;5002745;28;20211;-82
2022/03/29 10:21:50;;;;;;;22.80;15.80;;;;;;;17.68;29.62;95632.16;5000386;28;20217;-83
2022/03/29 10:24:19;;;;;;;24.83;15.17;;;;;;;17.62;29.95;95613.38;4991543;28;20235;-82
2022/03/29 10:26:51;;;;;;;22.47;15.07;;;;;;;17.71;30.77;95611.63;4998435;28;20251;-82
2022/03/29 10:29:18;;;;;;;23.70;16.23;;;;;;;17.72;30.31;95605.06;4998159;28;20210;-82
2022/03/29 10:31:53;;;;;;;26.57;15.10;;;;;;;17.78;30.64;95609.34;4998899;28;20208;-83
2022/03/29 10:34:22;;;;;;;24.77;16.33;;;;;;;17.96;31.29;95613.19;5014719;28;20238;-82
2022/03/29 10:37:08;;;;;;;25.10;16.33;;;;;;;18.11;32.14;95602.91;5000055;28;20338;-83
2022/03/29 10:39:52;;;;;;;23.73;16.47;;;;;;;18.15;31.95;95593.00;5013254;28;20203;-83
2022/03/29 10:42:31;;;;;;;22.27;15.83;;;;;;;18.21;31.82;95584.69;4998792;28;20215;-82
2022/03/29 10:45:06;;;;;;;24.47;17.10;;;;;;;18.37;30.99;95578.69;4998669;28;20223;-83
2022/03/29 10:47:34;;;;;;;25.17;16.23;;;;;;;18.41;31.29;95578.94;4998561;28;20204;-83
2022/03/29 10:50:02;;;;;;;24.33;16.17;;;;;;;18.42;31.49;95566.88;5002371;28;20532;-83
2022/03/29 10:52:37;;;;;;;26.00;15.33;;;;;;;18.48;31.77;95562.94;5003646;28;20211;-83
2022/03/29 10:55:25;;;;;;;26.73;15.93;;;;;;;18.57;32.00;95552.97;4990312;28;20222;-83
2022/03/29 10:58:07;;;;;;;24.60;14.90;;;;;;;18.70;32.05;95549.47;4993629;28;20200;-83
2022/03/29 11:00:36;;;;;;;22.30;15.10;;;;;;;18.68;32.09;95542.69;5011548;28;20258;-83
2022/03/29 11:03:11;;;;;;;22.73;15.43;;;;;;;18.93;31.51;95546.88;5004755;28;20277;-83
2022/03/29 11:06:07;;;;;;;22.20;15.33;;;;;;;19.01;31.74;95548.91;4989251;28;20227;-82
2022/03/29 11:08:36;;;;;;;22.67;15.77;;;;;;;19.22;30.40;95544.69;4998084;28;20208;-83
2022/03/29 11:11:06;;;;;;;23.90;15.03;;;;;;;19.23;30.36;95529.84;5000160;28;20210;-83
2022/03/29 11:13:37;;;;;;;22.93;15.60;;;;;;;19.31;29.97;95531.88;5001430;28;20212;-83
2022/03/29 11:16:29;;;;;;;20.70;15.27;;;;;;;19.39;28.97;95520.22;4998771;28;20238;-83
2022/03/29 11:18:58;;;;;;;22.13;15.75;;;;;;;19.51;28.61;95520.53;4991195;28;20261;-83
2022/03/29 11:21:47;;;;;;;22.25;15.70;;;;;;;19.51;27.43;95515.06;5024802;28;20215;-83
2022/03/29 11:24:15;;;;;;;21.67;15.63;;;;;;;19.60;26.81;95507.75;5014708;28;20236;-83
2022/03/29 11:26:59;;;;;;;24.83;17.17;;;;;;;19.80;26.62;95503.75;5005933;28;20204;-83
2022/03/29 11:29:26;;;;;;;24.55;17.55;;;;;;;19.80;26.61;95502.94;5001293;28;20290;-83
2022/03/29 11:31:56;;;;;;;23.98;16.77;;;;;;;19.71;26.58;95491.09;5017349;28;20218;-83
2022/03/29 11:34:23;;;;;;;22.50;16.15;;;;;;;19.82;25.62;95492.47;5016797;28;20216;-83
2022/03/29 11:36:50;;;;;;;26.77;17.67;;;;;;;19.92;25.38;95497.69;5023643;28;20218;-83